sensor_id;sensor_type;location;lat;lon;timestamp;P1;durP1;ratioP1;P2;durP2;ratioP2
85986;SDS011;76562;42.702;23.250;2024-03-02T00:02:02;10.80;;;9.70;;
85986;SDS011;76562;42.702;23.250;2024-03-02T00:04:30;11.10;;;9.23;;
85986;SDS011;76562;42.702;23.250;2024-03-02T00:06:59;10.63;;;9.37;;
85986;SDS011;76562;42.702;23.250;2024-03-02T00:09:28;10.33;;;8.90;;
85986;SDS011;76562;42.702;23.250;2024-03-02T00:11:57;12.63;;;10.30;;
85986;SDS011;76562;42.702;23.250;2024-03-02T00:14:27;10.87;;;9.67;;
85986;SDS011;76562;42.702;23.250;2024-03-02T00:16:57;11.97;;;9.60;;
85986;SDS011;76562;42.702;23.250;2024-03-02T00:19:26;10.77;;;9.43;;
85986;SDS011;76562;42.702;23.250;2024-03-02T00:21:54;12.70;;;9.37;;
85986;SDS011;76562;42.702;23.250;2024-03-02T00:24:25;12.07;;;9.97;;
85986;SDS011;76562;42.702;23.250;2024-03-02T00:26:59;11.60;;;9.00;;
85986;SDS011;76562;42.702;23.250;2024-03-02T00:29:28;9.90;;;8.90;;
85986;SDS011;76562;42.702;23.250;2024-03-02T00:31:57;10.27;;;9.23;;
85986;SDS011;76562;42.702;23.250;2024-03-02T00:34:25;11.17;;;9.80;;
85986;SDS011;76562;42.702;23.250;2024-03-02T00:36:54;11.00;;;9.07;;
85986;SDS011;76562;42.702;23.250;2024-03-02T00:39:28;10.20;;;9.20;;
85986;SDS011;76562;42.702;23.250;2024-03-02T00:41:57;9.67;;;8.67;;
85986;SDS011;76562;42.702;23.250;2024-03-02T00:44:25;10.13;;;8.90;;
85986;SDS011;76562;42.702;23.250;2024-03-02T00:46:57;9.23;;;8.23;;
85986;SDS011;76562;42.702;23.250;2024-03-02T00:49:27;9.30;;;8.30;;
85986;SDS011;76562;42.702;23.250;2024-03-02T00:51:55;10.20;;;8.03;;
85986;SDS011;76562;42.702;23.250;2024-03-02T00:54:24;8.93;;;8.03;;
85986;SDS011;76562;42.702;23.250;2024-03-02T00:56:57;9.70;;;8.10;;
85986;SDS011;76562;42.702;23.250;2024-03-02T00:59:25;8.90;;;8.00;;
85986;SDS011;76562;42.702;23.250;2024-03-02T01:01:53;9.87;;;8.17;;
85986;SDS011;76562;42.702;23.250;2024-03-02T01:04:22;8.60;;;7.47;;
85986;SDS011;76562;42.702;23.250;2024-03-02T01:06:50;8.93;;;8.03;;
85986;SDS011;76562;42.702;23.250;2024-03-02T01:09:18;8.13;;;7.33;;
85986;SDS011;76562;42.702;23.250;2024-03-02T01:11:47;9.03;;;7.70;;
85986;SDS011;76562;42.702;23.250;2024-03-02T01:14:17;9.07;;;7.87;;
85986;SDS011;76562;42.702;23.250;2024-03-02T01:16:45;8.90;;;8.00;;
85986;SDS011;76562;42.702;23.250;2024-03-02T01:19:13;8.90;;;8.00;;
85986;SDS011;76562;42.702;23.250;2024-03-02T01:21:42;8.53;;;7.10;;
85986;SDS011;76562;42.702;23.250;2024-03-02T01:24:10;7.47;;;6.77;;
85986;SDS011;76562;42.702;23.250;2024-03-02T01:26:40;8.93;;;7.90;;
85986;SDS011;76562;42.702;23.250;2024-03-02T01:29:08;8.20;;;7.37;;
85986;SDS011;76562;42.702;23.250;2024-03-02T01:31:37;8.67;;;7.77;;
85986;SDS011;76562;42.702;23.250;2024-03-02T01:34:08;8.17;;;7.33;;
85986;SDS011;76562;42.702;23.250;2024-03-02T01:36:37;8.27;;;7.33;;
85986;SDS011;76562;42.702;23.250;2024-03-02T01:39:05;7.97;;;7.17;;
85986;SDS011;76562;42.702;23.250;2024-03-02T01:41:35;9.20;;;7.97;;
85986;SDS011;76562;42.702;23.250;2024-03-02T01:44:04;8.17;;;7.13;;
85986;SDS011;76562;42.702;23.250;2024-03-02T01:46:32;8.50;;;7.13;;
85986;SDS011;76562;42.702;23.250;2024-03-02T01:49:02;7.63;;;6.83;;
85986;SDS011;76562;42.702;23.250;2024-03-02T01:51:31;8.33;;;7.37;;
85986;SDS011;76562;42.702;23.250;2024-03-02T01:53:59;11.87;;;7.10;;
85986;SDS011;76562;42.702;23.250;2024-03-02T01:56:27;10.87;;;7.53;;
85986;SDS011;76562;42.702;23.250;2024-03-02T01:58:55;9.30;;;7.80;;
85986;SDS011;76562;42.702;23.250;2024-03-02T02:01:23;6.90;;;6.20;;
85986;SDS011;76562;42.702;23.250;2024-03-02T02:03:52;8.33;;;7.43;;
85986;SDS011;76562;42.702;23.250;2024-03-02T02:06:21;10.27;;;7.17;;
85986;SDS011;76562;42.702;23.250;2024-03-02T02:08:50;7.50;;;6.80;;
85986;SDS011;76562;42.702;23.250;2024-03-02T02:11:18;7.97;;;7.17;;
85986;SDS011;76562;42.702;23.250;2024-03-02T02:13:46;8.60;;;7.70;;
85986;SDS011;76562;42.702;23.250;2024-03-02T02:16:15;8.67;;;7.77;;
85986;SDS011;76562;42.702;23.250;2024-03-02T02:18:43;9.07;;;7.50;;
85986;SDS011;76562;42.702;23.250;2024-03-02T02:21:11;7.90;;;7.10;;
85986;SDS011;76562;42.702;23.250;2024-03-02T02:23:41;8.37;;;7.20;;
85986;SDS011;76562;42.702;23.250;2024-03-02T02:26:13;8.43;;;7.40;;
85986;SDS011;76562;42.702;23.250;2024-03-02T02:28:41;8.57;;;7.10;;
85986;SDS011;76562;42.702;23.250;2024-03-02T02:31:13;8.10;;;7.30;;
85986;SDS011;76562;42.702;23.250;2024-03-02T02:33:41;8.77;;;7.30;;
85986;SDS011;76562;42.702;23.250;2024-03-02T02:36:10;8.73;;;7.83;;
85986;SDS011;76562;42.702;23.250;2024-03-02T02:38:38;8.33;;;7.07;;
85986;SDS011;76562;42.702;23.250;2024-03-02T02:41:11;9.20;;;8.30;;
85986;SDS011;76562;42.702;23.250;2024-03-02T02:43:39;8.97;;;7.63;;
85986;SDS011;76562;42.702;23.250;2024-03-02T02:46:08;9.57;;;7.80;;
85986;SDS011;76562;42.702;23.250;2024-03-02T02:48:36;7.60;;;6.90;;
85986;SDS011;76562;42.702;23.250;2024-03-02T02:51:04;10.20;;;7.40;;
85986;SDS011;76562;42.702;23.250;2024-03-02T02:53:32;9.33;;;8.30;;
85986;SDS011;76562;42.702;23.250;2024-03-02T02:56:03;9.97;;;8.70;;
85986;SDS011;76562;42.702;23.250;2024-03-02T02:58:32;8.60;;;7.60;;
85986;SDS011;76562;42.702;23.250;2024-03-02T03:01:00;8.80;;;7.90;;
85986;SDS011;76562;42.702;23.250;2024-03-02T03:03:28;9.80;;;7.73;;
85986;SDS011;76562;42.702;23.250;2024-03-02T03:05:56;10.77;;;8.07;;
85986;SDS011;76562;42.702;23.250;2024-03-02T03:08:25;10.30;;;7.80;;
85986;SDS011;76562;42.702;23.250;2024-03-02T03:10:53;12.33;;;8.20;;
85986;SDS011;76562;42.702;23.250;2024-03-02T03:13:22;8.80;;;7.53;;
85986;SDS011;76562;42.702;23.250;2024-03-02T03:15:51;8.87;;;7.67;;
85986;SDS011;76562;42.702;23.250;2024-03-02T03:18:19;9.83;;;7.83;;
85986;SDS011;76562;42.702;23.250;2024-03-02T03:20:47;12.00;;;8.27;;
85986;SDS011;76562;42.702;23.250;2024-03-02T03:23:16;9.77;;;8.00;;
85986;SDS011;76562;42.702;23.250;2024-03-02T03:25:44;9.20;;;7.97;;
85986;SDS011;76562;42.702;23.250;2024-03-02T03:28:13;12.60;;;8.00;;
85986;SDS011;76562;42.702;23.250;2024-03-02T03:30:42;11.43;;;7.83;;
85986;SDS011;76562;42.702;23.250;2024-03-02T03:33:10;9.20;;;7.97;;
85986;SDS011;76562;42.702;23.250;2024-03-02T03:35:38;8.67;;;7.70;;
85986;SDS011;76562;42.702;23.250;2024-03-02T03:38:07;11.53;;;8.13;;
85986;SDS011;76562;42.702;23.250;2024-03-02T03:40:35;8.57;;;7.53;;
85986;SDS011;76562;42.702;23.250;2024-03-02T03:43:03;8.90;;;7.50;;
85986;SDS011;76562;42.702;23.250;2024-03-02T03:45:31;9.07;;;7.63;;
85986;SDS011;76562;42.702;23.250;2024-03-02T03:48:01;9.20;;;8.23;;
85986;SDS011;76562;42.702;23.250;2024-03-02T03:50:30;9.53;;;7.97;;
85986;SDS011;76562;42.702;23.250;2024-03-02T03:52:58;9.73;;;7.83;;
85986;SDS011;76562;42.702;23.250;2024-03-02T03:55:26;8.67;;;7.77;;
85986;SDS011;76562;42.702;23.250;2024-03-02T03:57:54;10.40;;;7.60;;
85986;SDS011;76562;42.702;23.250;2024-03-02T04:00:22;8.83;;;7.93;;
85986;SDS011;76562;42.702;23.250;2024-03-02T04:02:51;9.57;;;8.57;;
85986;SDS011;76562;42.702;23.250;2024-03-02T04:05:20;9.93;;;8.13;;
85986;SDS011;76562;42.702;23.250;2024-03-02T04:07:48;8.70;;;7.80;;
85986;SDS011;76562;42.702;23.250;2024-03-02T04:10:16;12.83;;;8.33;;
85986;SDS011;76562;42.702;23.250;2024-03-02T04:12:45;8.70;;;7.90;;
85986;SDS011;76562;42.702;23.250;2024-03-02T04:15:13;8.97;;;8.07;;
85986;SDS011;76562;42.702;23.250;2024-03-02T04:17:41;9.90;;;8.17;;
85986;SDS011;76562;42.702;23.250;2024-03-02T04:20:10;10.90;;;8.07;;
85986;SDS011;76562;42.702;23.250;2024-03-02T04:22:40;8.70;;;7.80;;
85986;SDS011;76562;42.702;23.250;2024-03-02T04:25:09;9.70;;;8.70;;
85986;SDS011;76562;42.702;23.250;2024-03-02T04:27:37;9.70;;;7.87;;
85986;SDS011;76562;42.702;23.250;2024-03-02T04:30:05;9.87;;;8.40;;
85986;SDS011;76562;42.702;23.250;2024-03-02T04:32:34;9.70;;;7.93;;
85986;SDS011;76562;42.702;23.250;2024-03-02T04:35:04;8.93;;;8.07;;
85986;SDS011;76562;42.702;23.250;2024-03-02T04:37:34;9.73;;;7.97;;
85986;SDS011;76562;42.702;23.250;2024-03-02T04:40:05;12.83;;;8.03;;
85986;SDS011;76562;42.702;23.250;2024-03-02T04:42:35;14.63;;;8.40;;
85986;SDS011;76562;42.702;23.250;2024-03-02T04:45:03;14.03;;;8.30;;
85986;SDS011;76562;42.702;23.250;2024-03-02T04:47:32;9.17;;;7.20;;
85986;SDS011;76562;42.702;23.250;2024-03-02T04:50:00;10.67;;;8.03;;
85986;SDS011;76562;42.702;23.250;2024-03-02T04:52:29;9.50;;;8.00;;
85986;SDS011;76562;42.702;23.250;2024-03-02T04:54:57;11.60;;;8.40;;
85986;SDS011;76562;42.702;23.250;2024-03-02T04:57:51;12.10;;;8.03;;
85986;SDS011;76562;42.702;23.250;2024-03-02T05:00:21;10.90;;;8.53;;
85986;SDS011;76562;42.702;23.250;2024-03-02T05:02:50;10.37;;;8.17;;
85986;SDS011;76562;42.702;23.250;2024-03-02T05:05:18;10.83;;;8.53;;
85986;SDS011;76562;42.702;23.250;2024-03-02T05:07:46;10.10;;;8.83;;
85986;SDS011;76562;42.702;23.250;2024-03-02T05:10:14;11.43;;;8.90;;
85986;SDS011;76562;42.702;23.250;2024-03-02T05:12:43;9.40;;;8.30;;
85986;SDS011;76562;42.702;23.250;2024-03-02T05:15:25;10.60;;;8.17;;
85986;SDS011;76562;42.702;23.250;2024-03-02T05:17:54;13.90;;;7.73;;
85986;SDS011;76562;42.702;23.250;2024-03-02T05:20:23;12.70;;;8.90;;
85986;SDS011;76562;42.702;23.250;2024-03-02T05:22:52;13.67;;;8.13;;
85986;SDS011;76562;42.702;23.250;2024-03-02T05:25:20;12.00;;;8.37;;
85986;SDS011;76562;42.702;23.250;2024-03-02T05:27:48;10.97;;;8.40;;
85986;SDS011;76562;42.702;23.250;2024-03-02T05:30:16;11.33;;;9.07;;
85986;SDS011;76562;42.702;23.250;2024-03-02T05:32:46;10.37;;;8.10;;
85986;SDS011;76562;42.702;23.250;2024-03-02T05:35:14;10.93;;;8.73;;
85986;SDS011;76562;42.702;23.250;2024-03-02T05:37:42;14.13;;;8.53;;
85986;SDS011;76562;42.702;23.250;2024-03-02T05:40:11;11.10;;;8.67;;
85986;SDS011;76562;42.702;23.250;2024-03-02T05:42:39;11.00;;;8.63;;
85986;SDS011;76562;42.702;23.250;2024-03-02T05:45:08;9.63;;;8.70;;
85986;SDS011;76562;42.702;23.250;2024-03-02T05:47:37;10.03;;;7.67;;
85986;SDS011;76562;42.702;23.250;2024-03-02T05:50:07;10.03;;;8.53;;
85986;SDS011;76562;42.702;23.250;2024-03-02T05:52:36;9.50;;;8.17;;
85986;SDS011;76562;42.702;23.250;2024-03-02T05:55:04;10.03;;;8.07;;
85986;SDS011;76562;42.702;23.250;2024-03-02T05:57:33;12.70;;;8.03;;
85986;SDS011;76562;42.702;23.250;2024-03-02T06:00:14;10.27;;;7.67;;
85986;SDS011;76562;42.702;23.250;2024-03-02T06:02:44;9.53;;;8.27;;
85986;SDS011;76562;42.702;23.250;2024-03-02T06:05:13;11.13;;;8.90;;
85986;SDS011;76562;42.702;23.250;2024-03-02T06:07:42;10.53;;;8.67;;
85986;SDS011;76562;42.702;23.250;2024-03-02T06:10:10;9.33;;;8.27;;
85986;SDS011;76562;42.702;23.250;2024-03-02T06:12:40;10.93;;;8.40;;
85986;SDS011;76562;42.702;23.250;2024-03-02T06:15:09;9.77;;;8.77;;
85986;SDS011;76562;42.702;23.250;2024-03-02T06:17:37;10.03;;;7.50;;
85986;SDS011;76562;42.702;23.250;2024-03-02T06:20:06;10.27;;;8.57;;
85986;SDS011;76562;42.702;23.250;2024-03-02T06:22:36;8.97;;;7.90;;
85986;SDS011;76562;42.702;23.250;2024-03-02T06:25:05;8.90;;;7.90;;
85986;SDS011;76562;42.702;23.250;2024-03-02T06:27:34;10.37;;;8.70;;
85986;SDS011;76562;42.702;23.250;2024-03-02T06:30:02;10.63;;;9.53;;
85986;SDS011;76562;42.702;23.250;2024-03-02T06:32:31;10.23;;;8.70;;
85986;SDS011;76562;42.702;23.250;2024-03-02T06:34:59;10.63;;;9.10;;
85986;SDS011;76562;42.702;23.250;2024-03-02T06:37:28;10.07;;;8.97;;
85986;SDS011;76562;42.702;23.250;2024-03-02T06:39:57;9.20;;;8.20;;
85986;SDS011;76562;42.702;23.250;2024-03-02T06:42:26;10.13;;;8.80;;
85986;SDS011;76562;42.702;23.250;2024-03-02T06:45:00;10.80;;;9.43;;
85986;SDS011;76562;42.702;23.250;2024-03-02T06:47:28;11.37;;;8.57;;
85986;SDS011;76562;42.702;23.250;2024-03-02T06:49:56;10.50;;;9.37;;
85986;SDS011;76562;42.702;23.250;2024-03-02T06:52:25;11.07;;;8.90;;
85986;SDS011;76562;42.702;23.250;2024-03-02T06:54:53;10.40;;;8.97;;
85986;SDS011;76562;42.702;23.250;2024-03-02T06:57:23;11.00;;;8.73;;
85986;SDS011;76562;42.702;23.250;2024-03-02T06:59:51;10.00;;;8.70;;
85986;SDS011;76562;42.702;23.250;2024-03-02T07:02:21;9.43;;;8.30;;
85986;SDS011;76562;42.702;23.250;2024-03-02T07:04:49;9.53;;;8.43;;
85986;SDS011;76562;42.702;23.250;2024-03-02T07:07:18;8.83;;;7.93;;
85986;SDS011;76562;42.702;23.250;2024-03-02T07:09:46;9.00;;;8.10;;
85986;SDS011;76562;42.702;23.250;2024-03-02T07:12:15;10.60;;;8.80;;
85986;SDS011;76562;42.702;23.250;2024-03-02T07:14:44;9.67;;;7.63;;
85986;SDS011;76562;42.702;23.250;2024-03-02T07:17:37;8.53;;;7.63;;
85986;SDS011;76562;42.702;23.250;2024-03-02T07:20:06;10.60;;;8.20;;
85986;SDS011;76562;42.702;23.250;2024-03-02T07:22:34;9.90;;;7.63;;
85986;SDS011;76562;42.702;23.250;2024-03-02T07:25:07;10.10;;;8.70;;
85986;SDS011;76562;42.702;23.250;2024-03-02T07:27:56;9.93;;;8.40;;
85986;SDS011;76562;42.702;23.250;2024-03-02T07:30:25;8.63;;;7.83;;
85986;SDS011;76562;42.702;23.250;2024-03-02T07:32:55;8.87;;;7.87;;
85986;SDS011;76562;42.702;23.250;2024-03-02T07:35:24;9.40;;;8.10;;
85986;SDS011;76562;42.702;23.250;2024-03-02T07:37:54;9.13;;;7.73;;
85986;SDS011;76562;42.702;23.250;2024-03-02T07:40:23;10.77;;;8.90;;
85986;SDS011;76562;42.702;23.250;2024-03-02T07:42:51;8.97;;;8.07;;
85986;SDS011;76562;42.702;23.250;2024-03-02T07:45:20;8.30;;;7.43;;
85986;SDS011;76562;42.702;23.250;2024-03-02T07:47:49;9.60;;;7.83;;
85986;SDS011;76562;42.702;23.250;2024-03-02T07:50:18;9.13;;;7.77;;
85986;SDS011;76562;42.702;23.250;2024-03-02T07:52:46;9.17;;;8.17;;
85986;SDS011;76562;42.702;23.250;2024-03-02T07:55:14;10.67;;;8.50;;
85986;SDS011;76562;42.702;23.250;2024-03-02T07:57:43;9.43;;;8.00;;
85986;SDS011;76562;42.702;23.250;2024-03-02T08:00:11;9.43;;;7.73;;
85986;SDS011;76562;42.702;23.250;2024-03-02T08:02:42;12.63;;;8.90;;
85986;SDS011;76562;42.702;23.250;2024-03-02T08:05:11;11.37;;;8.13;;
85986;SDS011;76562;42.702;23.250;2024-03-02T08:07:40;8.87;;;7.97;;
85986;SDS011;76562;42.702;23.250;2024-03-02T08:10:08;17.33;;;10.53;;
85986;SDS011;76562;42.702;23.250;2024-03-02T08:12:37;14.97;;;9.67;;
85986;SDS011;76562;42.702;23.250;2024-03-02T08:15:05;14.30;;;9.90;;
85986;SDS011;76562;42.702;23.250;2024-03-02T08:17:34;16.00;;;10.70;;
85986;SDS011;76562;42.702;23.250;2024-03-02T08:20:05;15.60;;;9.30;;
85986;SDS011;76562;42.702;23.250;2024-03-02T08:22:36;15.97;;;9.13;;
85986;SDS011;76562;42.702;23.250;2024-03-02T08:25:04;12.80;;;9.33;;
85986;SDS011;76562;42.702;23.250;2024-03-02T08:27:33;16.97;;;9.13;;
85986;SDS011;76562;42.702;23.250;2024-03-02T08:30:01;12.90;;;9.03;;
85986;SDS011;76562;42.702;23.250;2024-03-02T08:32:33;11.93;;;8.87;;
85986;SDS011;76562;42.702;23.250;2024-03-02T08:35:01;12.33;;;8.73;;
85986;SDS011;76562;42.702;23.250;2024-03-02T08:37:29;12.40;;;8.73;;
85986;SDS011;76562;42.702;23.250;2024-03-02T08:39:59;15.20;;;8.40;;
85986;SDS011;76562;42.702;23.250;2024-03-02T08:42:28;10.43;;;8.13;;
85986;SDS011;76562;42.702;23.250;2024-03-02T08:44:56;13.63;;;8.70;;
85986;SDS011;76562;42.702;23.250;2024-03-02T08:47:24;12.47;;;8.73;;
85986;SDS011;76562;42.702;23.250;2024-03-02T08:49:52;10.37;;;8.70;;
85986;SDS011;76562;42.702;23.250;2024-03-02T08:52:23;10.17;;;8.60;;
85986;SDS011;76562;42.702;23.250;2024-03-02T08:54:51;11.27;;;8.93;;
85986;SDS011;76562;42.702;23.250;2024-03-02T08:57:21;12.93;;;8.53;;
85986;SDS011;76562;42.702;23.250;2024-03-02T08:59:49;10.77;;;8.30;;
85986;SDS011;76562;42.702;23.250;2024-03-02T09:02:17;11.57;;;7.97;;
85986;SDS011;76562;42.702;23.250;2024-03-02T09:04:45;10.33;;;8.17;;
85986;SDS011;76562;42.702;23.250;2024-03-02T09:07:14;12.30;;;8.40;;
85986;SDS011;76562;42.702;23.250;2024-03-02T09:09:42;11.77;;;8.47;;
85986;SDS011;76562;42.702;23.250;2024-03-02T09:12:10;10.50;;;8.40;;
85986;SDS011;76562;42.702;23.250;2024-03-02T09:14:40;10.03;;;8.63;;
85986;SDS011;76562;42.702;23.250;2024-03-02T09:17:09;9.83;;;7.73;;
85986;SDS011;76562;42.702;23.250;2024-03-02T09:19:38;12.43;;;8.73;;
85986;SDS011;76562;42.702;23.250;2024-03-02T09:22:07;8.73;;;7.50;;
85986;SDS011;76562;42.702;23.250;2024-03-02T09:24:36;10.23;;;7.87;;
85986;SDS011;76562;42.702;23.250;2024-03-02T09:27:04;9.37;;;8.27;;
85986;SDS011;76562;42.702;23.250;2024-03-02T09:29:32;10.53;;;7.97;;
85986;SDS011;76562;42.702;23.250;2024-03-02T09:32:02;9.13;;;7.63;;
85986;SDS011;76562;42.702;23.250;2024-03-02T09:34:30;11.30;;;8.43;;
85986;SDS011;76562;42.702;23.250;2024-03-02T09:36:59;9.80;;;8.27;;
85986;SDS011;76562;42.702;23.250;2024-03-02T09:39:28;9.10;;;7.70;;
85986;SDS011;76562;42.702;23.250;2024-03-02T09:41:57;10.13;;;7.50;;
85986;SDS011;76562;42.702;23.250;2024-03-02T09:44:26;9.43;;;8.10;;
85986;SDS011;76562;42.702;23.250;2024-03-02T09:46:54;9.53;;;7.83;;
85986;SDS011;76562;42.702;23.250;2024-03-02T09:49:24;9.63;;;7.50;;
85986;SDS011;76562;42.702;23.250;2024-03-02T09:51:52;10.80;;;7.73;;
85986;SDS011;76562;42.702;23.250;2024-03-02T09:54:21;10.60;;;7.80;;
85986;SDS011;76562;42.702;23.250;2024-03-02T09:56:50;8.97;;;7.00;;
85986;SDS011;76562;42.702;23.250;2024-03-02T09:59:18;9.07;;;7.77;;
85986;SDS011;76562;42.702;23.250;2024-03-02T10:01:57;10.33;;;8.27;;
85986;SDS011;76562;42.702;23.250;2024-03-02T10:04:28;11.40;;;8.67;;
85986;SDS011;76562;42.702;23.250;2024-03-02T10:07:10;10.97;;;8.03;;
85986;SDS011;76562;42.702;23.250;2024-03-02T10:09:39;9.77;;;7.67;;
85986;SDS011;76562;42.702;23.250;2024-03-02T10:12:09;10.93;;;7.93;;
85986;SDS011;76562;42.702;23.250;2024-03-02T10:14:39;12.10;;;7.93;;
85986;SDS011;76562;42.702;23.250;2024-03-02T10:17:08;10.70;;;8.00;;
85986;SDS011;76562;42.702;23.250;2024-03-02T10:19:38;11.90;;;8.30;;
85986;SDS011;76562;42.702;23.250;2024-03-02T10:22:07;11.50;;;8.05;;
85986;SDS011;76562;42.702;23.250;2024-03-02T10:24:37;9.73;;;8.17;;
85986;SDS011;76562;42.702;23.250;2024-03-02T10:27:07;8.93;;;7.00;;
85986;SDS011;76562;42.702;23.250;2024-03-02T10:29:37;9.97;;;8.23;;
85986;SDS011;76562;42.702;23.250;2024-03-02T10:32:08;10.20;;;7.93;;
85986;SDS011;76562;42.702;23.250;2024-03-02T10:34:40;8.83;;;7.37;;
85986;SDS011;76562;42.702;23.250;2024-03-02T10:37:10;9.47;;;7.63;;
85986;SDS011;76562;42.702;23.250;2024-03-02T10:39:39;11.43;;;8.70;;
85986;SDS011;76562;42.702;23.250;2024-03-02T10:42:08;10.60;;;8.10;;
85986;SDS011;76562;42.702;23.250;2024-03-02T10:44:36;8.70;;;7.60;;
85986;SDS011;76562;42.702;23.250;2024-03-02T10:47:05;9.70;;;8.03;;
85986;SDS011;76562;42.702;23.250;2024-03-02T10:49:33;10.50;;;8.40;;
85986;SDS011;76562;42.702;23.250;2024-03-02T10:52:02;10.23;;;8.23;;
85986;SDS011;76562;42.702;23.250;2024-03-02T10:54:30;10.43;;;9.00;;
85986;SDS011;76562;42.702;23.250;2024-03-02T10:57:05;10.07;;;8.60;;
85986;SDS011;76562;42.702;23.250;2024-03-02T10:59:36;10.20;;;8.27;;
85986;SDS011;76562;42.702;23.250;2024-03-02T11:02:06;10.17;;;8.30;;
85986;SDS011;76562;42.702;23.250;2024-03-02T11:04:38;10.37;;;8.63;;
85986;SDS011;76562;42.702;23.250;2024-03-02T11:07:10;9.70;;;8.03;;
85986;SDS011;76562;42.702;23.250;2024-03-02T11:09:40;9.97;;;8.40;;
85986;SDS011;76562;42.702;23.250;2024-03-02T11:12:12;10.83;;;8.10;;
85986;SDS011;76562;42.702;23.250;2024-03-02T11:14:44;9.63;;;8.10;;
85986;SDS011;76562;42.702;23.250;2024-03-02T11:17:13;9.47;;;8.20;;
85986;SDS011;76562;42.702;23.250;2024-03-02T11:19:43;10.37;;;8.17;;
85986;SDS011;76562;42.702;23.250;2024-03-02T11:22:14;9.33;;;8.10;;
85986;SDS011;76562;42.702;23.250;2024-03-02T11:24:47;10.27;;;8.60;;
85986;SDS011;76562;42.702;23.250;2024-03-02T11:27:58;10.50;;;9.07;;
85986;SDS011;76562;42.702;23.250;2024-03-02T11:30:52;10.40;;;8.73;;
85986;SDS011;76562;42.702;23.250;2024-03-02T11:33:24;9.77;;;8.10;;
85986;SDS011;76562;42.702;23.250;2024-03-02T11:35:56;11.43;;;9.10;;
85986;SDS011;76562;42.702;23.250;2024-03-02T11:38:31;9.73;;;7.83;;
85986;SDS011;76562;42.702;23.250;2024-03-02T11:41:01;9.23;;;7.57;;
85986;SDS011;76562;42.702;23.250;2024-03-02T11:43:30;11.00;;;8.07;;
85986;SDS011;76562;42.702;23.250;2024-03-02T11:46:00;11.97;;;8.30;;
85986;SDS011;76562;42.702;23.250;2024-03-02T11:48:31;9.23;;;8.30;;
85986;SDS011;76562;42.702;23.250;2024-03-02T11:51:00;10.83;;;8.23;;
85986;SDS011;76562;42.702;23.250;2024-03-02T11:53:28;10.50;;;8.20;;
85986;SDS011;76562;42.702;23.250;2024-03-02T11:56:02;10.17;;;8.53;;
85986;SDS011;76562;42.702;23.250;2024-03-02T11:58:32;9.70;;;8.27;;
85986;SDS011;76562;42.702;23.250;2024-03-02T12:01:04;9.73;;;7.57;;
85986;SDS011;76562;42.702;23.250;2024-03-02T12:03:32;9.70;;;8.17;;
85986;SDS011;76562;42.702;23.250;2024-03-02T12:06:02;9.80;;;7.60;;
85986;SDS011;76562;42.702;23.250;2024-03-02T12:08:32;11.73;;;9.00;;
85986;SDS011;76562;42.702;23.250;2024-03-02T12:11:00;9.97;;;7.77;;
85986;SDS011;76562;42.702;23.250;2024-03-02T12:13:30;8.83;;;7.93;;
85986;SDS011;76562;42.702;23.250;2024-03-02T12:16:00;9.60;;;8.17;;
85986;SDS011;76562;42.702;23.250;2024-03-02T12:18:28;9.93;;;7.50;;
85986;SDS011;76562;42.702;23.250;2024-03-02T12:20:56;9.83;;;7.90;;
85986;SDS011;76562;42.702;23.250;2024-03-02T12:23:25;9.50;;;7.87;;
85986;SDS011;76562;42.702;23.250;2024-03-02T12:25:55;9.13;;;7.77;;
85986;SDS011;76562;42.702;23.250;2024-03-02T12:28:23;8.83;;;7.80;;
85986;SDS011;76562;42.702;23.250;2024-03-02T12:30:51;8.60;;;7.60;;
85986;SDS011;76562;42.702;23.250;2024-03-02T12:33:20;9.70;;;7.73;;
85986;SDS011;76562;42.702;23.250;2024-03-02T12:35:48;9.73;;;8.43;;
85986;SDS011;76562;42.702;23.250;2024-03-02T12:38:17;9.67;;;7.97;;
85986;SDS011;76562;42.702;23.250;2024-03-02T12:40:47;9.13;;;7.23;;
85986;SDS011;76562;42.702;23.250;2024-03-02T12:43:18;9.40;;;7.70;;
85986;SDS011;76562;42.702;23.250;2024-03-02T12:45:46;9.13;;;7.80;;
85986;SDS011;76562;42.702;23.250;2024-03-02T12:48:14;10.80;;;7.70;;
85986;SDS011;76562;42.702;23.250;2024-03-02T12:50:42;11.27;;;8.67;;
85986;SDS011;76562;42.702;23.250;2024-03-02T12:53:14;9.53;;;7.60;;
85986;SDS011;76562;42.702;23.250;2024-03-02T12:55:43;9.50;;;7.93;;
85986;SDS011;76562;42.702;23.250;2024-03-02T12:58:18;8.77;;;7.30;;
85986;SDS011;76562;42.702;23.250;2024-03-02T13:00:48;8.43;;;7.20;;
85986;SDS011;76562;42.702;23.250;2024-03-02T13:03:17;8.63;;;7.13;;
85986;SDS011;76562;42.702;23.250;2024-03-02T13:05:50;8.60;;;7.47;;
85986;SDS011;76562;42.702;23.250;2024-03-02T13:08:20;8.30;;;6.87;;
85986;SDS011;76562;42.702;23.250;2024-03-02T13:10:48;8.33;;;7.10;;
85986;SDS011;76562;42.702;23.250;2024-03-02T13:13:18;8.80;;;7.73;;
85986;SDS011;76562;42.702;23.250;2024-03-02T13:15:46;9.00;;;7.20;;
85986;SDS011;76562;42.702;23.250;2024-03-02T13:18:14;8.70;;;6.80;;
85986;SDS011;76562;42.702;23.250;2024-03-02T13:20:46;8.53;;;6.90;;
85986;SDS011;76562;42.702;23.250;2024-03-02T13:23:14;8.80;;;7.27;;
85986;SDS011;76562;42.702;23.250;2024-03-02T13:25:42;7.67;;;6.87;;
85986;SDS011;76562;42.702;23.250;2024-03-02T13:28:11;7.60;;;6.50;;
85986;SDS011;76562;42.702;23.250;2024-03-02T13:30:41;8.60;;;7.13;;
85986;SDS011;76562;42.702;23.250;2024-03-02T13:33:09;9.30;;;6.97;;
85986;SDS011;76562;42.702;23.250;2024-03-02T13:35:37;8.40;;;7.00;;
85986;SDS011;76562;42.702;23.250;2024-03-02T13:38:06;8.30;;;6.43;;
85986;SDS011;76562;42.702;23.250;2024-03-02T13:40:34;8.13;;;6.87;;
85986;SDS011;76562;42.702;23.250;2024-03-02T13:43:02;8.90;;;7.17;;
85986;SDS011;76562;42.702;23.250;2024-03-02T13:45:31;8.10;;;6.40;;
85986;SDS011;76562;42.702;23.250;2024-03-02T13:48:01;8.10;;;6.93;;
85986;SDS011;76562;42.702;23.250;2024-03-02T13:50:30;7.90;;;7.10;;
85986;SDS011;76562;42.702;23.250;2024-03-02T13:52:59;7.33;;;6.63;;
85986;SDS011;76562;42.702;23.250;2024-03-02T13:55:27;7.93;;;6.80;;
85986;SDS011;76562;42.702;23.250;2024-03-02T13:57:56;7.77;;;6.87;;
85986;SDS011;76562;42.702;23.250;2024-03-02T14:00:24;7.47;;;6.70;;
85986;SDS011;76562;42.702;23.250;2024-03-02T14:02:53;7.23;;;5.83;;
85986;SDS011;76562;42.702;23.250;2024-03-02T14:05:22;7.20;;;6.27;;
85986;SDS011;76562;42.702;23.250;2024-03-02T14:07:50;7.43;;;6.47;;
85986;SDS011;76562;42.702;23.250;2024-03-02T14:10:18;6.90;;;6.20;;
85986;SDS011;76562;42.702;23.250;2024-03-02T14:12:49;8.40;;;6.63;;
85986;SDS011;76562;42.702;23.250;2024-03-02T14:15:17;7.23;;;6.53;;
85986;SDS011;76562;42.702;23.250;2024-03-02T14:17:47;7.47;;;6.60;;
85986;SDS011;76562;42.702;23.250;2024-03-02T14:20:16;6.90;;;5.80;;
85986;SDS011;76562;42.702;23.250;2024-03-02T14:22:50;6.97;;;6.07;;
85986;SDS011;76562;42.702;23.250;2024-03-02T14:25:18;7.07;;;6.17;;
85986;SDS011;76562;42.702;23.250;2024-03-02T14:27:46;7.33;;;6.27;;
85986;SDS011;76562;42.702;23.250;2024-03-02T14:30:34;6.70;;;5.73;;
85986;SDS011;76562;42.702;23.250;2024-03-02T14:33:04;7.50;;;6.30;;
85986;SDS011;76562;42.702;23.250;2024-03-02T14:35:32;6.63;;;5.73;;
85986;SDS011;76562;42.702;23.250;2024-03-02T14:38:02;8.23;;;6.68;;
85986;SDS011;76562;42.702;23.250;2024-03-02T14:40:31;8.30;;;6.20;;
85986;SDS011;76562;42.702;23.250;2024-03-02T14:42:59;6.97;;;5.93;;